To NAV CANADA Home Page Login to a new session Search on AWWS site Disclaimer Vers la page française équivalente Tips FAQ What's new on the site To the Forecasts and Observations / NOTAM section To "File a Flight Plan" website Publications and other links Update of the User's profile FIC Telephone Numbers My Weather Data Folder Route Weather Data Regional Weather Data Local Weather Data To the Forecasts and Observations / NOTAM section
Request Generated 02/01/2023 at 06:32:34 UTC . Weather information available at that time is displayed.

METAR/TAF

WHITEHORSE/ERIK NIELSEN INTL/YT    

METAR CYXY 010600Z CCA 33005KT 5SM -SN OVC028 M11/M13 A2981 RMK SC8 /S01/ SLP155=
METAR CYXY 010600Z 33005KT 5SM -SN OVC028 M11/M13 A2981 RMK SC8 SLP155=
METAR CYXY 010500Z 34006KT 8SM -SN BKN029 BKN075 M11/M13 A2980 RMK SC5AC2 SLP149=
METAR CYXY 010400Z 34004KT 6SM -SN BKN030 BKN080 M10/M12 A2979 RMK SC5AC2 SLP145=

TAF CYXY 010540Z 0106/0118 34006KT P6SM SCT015 BKN030 OVC070 TEMPO
0106/0109 5SM -SN BKN015
FM010900 18010KT P6SM BKN030
RMK NXT FCST BY 011200Z=
Your time UTC time
Weather data provided by Environment Canada and NAV CANADA